createdAt,value
2023-11-09T00:02:04.048Z,50.80
2023-11-09T00:12:13.365Z,50.90
2023-11-09T00:22:21.980Z,50.60
2023-11-09T00:32:30.844Z,50.50
2023-11-09T00:42:38.498Z,50.50
2023-11-09T00:52:50.179Z,50.50
2023-11-09T01:02:57.643Z,50.60
2023-11-09T01:13:07.951Z,50.80
2023-11-09T01:23:15.726Z,50.70
2023-11-09T01:33:24.878Z,50.60
2023-11-09T01:43:34.197Z,50.30
2023-11-09T01:53:43.719Z,50.10
2023-11-09T02:03:51.565Z,49.90
2023-11-09T02:14:00.905Z,50.20
2023-11-09T02:24:15.205Z,50.20
2023-11-09T02:34:25.930Z,50.20
2023-11-09T02:44:36.245Z,50.30
2023-11-09T02:54:46.144Z,51.20
2023-11-09T03:04:55.117Z,51.30
2023-11-09T03:15:02.598Z,51.10
2023-11-09T03:25:12.243Z,50.80
2023-11-09T03:35:19.586Z,50.70
2023-11-09T03:45:29.802Z,50.40
2023-11-09T03:55:37.759Z,50.20
2023-11-09T04:05:48.839Z,52.60
2023-11-09T04:15:59.056Z,52.80
2023-11-09T04:26:11.918Z,52.80
2023-11-09T04:36:19.565Z,52.90
2023-11-09T04:46:30.964Z,53.00
2023-11-09T04:56:54.933Z,52.90
2023-11-09T05:07:03.892Z,53.60
2023-11-09T05:17:11.603Z,53.30
2023-11-09T05:27:21.304Z,53.60
2023-11-09T05:37:31.172Z,53.10
2023-11-09T05:47:42.718Z,53.10
2023-11-09T05:57:52.327Z,52.90
2023-11-09T06:08:01.370Z,52.80
2023-11-09T06:18:10.432Z,52.70
2023-11-09T06:28:19.377Z,53.00
2023-11-09T06:38:26.534Z,52.60
2023-11-09T06:48:36.173Z,52.90
2023-11-09T06:58:43.353Z,52.60
2023-11-09T07:08:53.252Z,52.40
2023-11-09T07:19:00.835Z,52.20
2023-11-09T07:29:09.668Z,52.40
2023-11-09T07:39:17.085Z,52.50
2023-11-09T07:49:31.502Z,52.30
2023-11-09T07:59:38.922Z,52.10
2023-11-09T08:09:48.511Z,52.00
2023-11-09T08:19:57.104Z,51.70
2023-11-09T08:30:09.720Z,51.70
2023-11-09T08:40:20.403Z,51.60
2023-11-09T08:50:29.729Z,51.40
2023-11-09T09:00:36.918Z,51.20
2023-11-09T09:10:45.893Z,51.20
2023-11-09T09:20:53.200Z,50.90
2023-11-09T09:31:02.467Z,50.30
2023-11-09T09:41:14.054Z,50.10
2023-11-09T09:51:24.633Z,49.80
2023-11-09T10:01:32.168Z,49.50
2023-11-09T10:11:41.501Z,49.90
2023-11-09T10:21:49.107Z,48.90
2023-11-09T10:31:59.340Z,48.70
2023-11-09T10:42:10.317Z,48.70
2023-11-09T10:52:23.820Z,48.70
2023-11-09T11:02:47.086Z,48.50
2023-11-09T11:12:59.497Z,48.30
2023-11-09T11:23:38.965Z,48.30
2023-11-09T11:33:50.166Z,48.20
2023-11-09T11:44:02.377Z,48.00
2023-11-09T11:54:14.627Z,48.10
2023-11-09T12:04:21.956Z,48.10
2023-11-09T12:14:31.058Z,48.10
2023-11-09T12:24:38.316Z,47.90
2023-11-09T12:34:47.354Z,47.90
2023-11-09T12:44:58.361Z,47.90
2023-11-09T12:55:11.936Z,48.10
2023-11-09T13:05:23.731Z,48.10
2023-11-09T13:15:39.368Z,48.20
2023-11-09T13:25:51.489Z,48.20
2023-11-09T13:36:01.429Z,48.10
2023-11-09T13:46:15.504Z,48.00
2023-11-09T13:56:50.038Z,47.90
2023-11-09T14:06:59.773Z,47.80
2023-11-09T14:17:18.640Z,47.40
2023-11-09T14:27:28.495Z,47.50
2023-11-09T14:37:38.677Z,47.40
2023-11-09T14:47:48.312Z,47.50
2023-11-09T14:58:00.038Z,47.70
2023-11-09T15:08:11.606Z,47.80
2023-11-09T15:18:22.588Z,47.70
2023-11-09T15:28:32.993Z,47.80
2023-11-09T15:38:43.157Z,49.00
2023-11-09T15:48:55.263Z,47.70
2023-11-09T15:59:04.661Z,48.40
2023-11-09T16:09:14.237Z,48.50
2023-11-09T16:19:23.268Z,48.40
2023-11-09T16:29:30.591Z,48.20
2023-11-09T16:39:39.583Z,48.20
2023-11-09T16:49:46.805Z,48.20
2023-11-09T16:59:58.184Z,47.40
2023-11-09T17:10:05.732Z,47.30
2023-11-09T17:20:15.748Z,47.30
2023-11-09T17:30:23.013Z,47.50
2023-11-09T17:40:31.680Z,47.50
2023-11-09T17:50:41.192Z,47.80
2023-11-09T18:00:57.350Z,51.40
2023-11-09T18:11:04.771Z,50.50
2023-11-09T18:21:14.856Z,49.00
2023-11-09T18:31:24.645Z,48.60
2023-11-09T18:41:33.423Z,48.30
2023-11-09T18:51:40.837Z,48.30
2023-11-09T19:01:51.400Z,48.20
2023-11-09T19:11:59.132Z,48.20
2023-11-09T19:32:22.165Z,48.80
2023-11-09T19:42:32.429Z,49.00
2023-11-09T19:52:39.821Z,49.20
2023-11-09T20:02:49.471Z,49.20
2023-11-09T20:12:56.695Z,49.20
2023-11-09T20:23:07.850Z,49.00
2023-11-09T20:33:14.922Z,49.30
2023-11-09T20:43:23.678Z,49.50
2023-11-09T20:53:30.923Z,49.50
2023-11-09T21:03:41.765Z,49.60
2023-11-09T21:13:49.712Z,49.70
2023-11-09T21:24:00.298Z,49.80
2023-11-09T21:34:07.666Z,49.70
2023-11-09T21:44:18.341Z,49.60
2023-11-09T21:54:25.712Z,49.50
2023-11-09T22:04:39.335Z,49.30
2023-11-09T22:14:46.694Z,49.80
2023-11-09T22:24:55.474Z,49.90
2023-11-09T22:35:03.739Z,48.90
2023-11-09T22:45:13.902Z,48.70
2023-11-09T22:55:21.069Z,48.60
2023-11-09T23:05:31.211Z,47.30
2023-11-09T23:15:38.612Z,46.80
2023-11-09T23:25:47.827Z,46.50
2023-11-09T23:35:55.523Z,46.00
2023-11-09T23:46:07.655Z,46.00
2023-11-09T23:56:17.472Z,46.50
